Time;durP1;ratioP1;P1;durP2;ratioP2;P2;SDS_P1;SDS_P2;PMS_P1;PMS_P2;Temp;Humidity;BMP_temperature;BMP_pressure;BME280_temperature;BME280_humidity;BME280_pressure;Samples;Min_cycle;Max_cycle;Signal;HPM_P1;HPM_P2
2021/06/24 00:00:02;;;;;;;;;;;26.20;46.50;;;;;;1602933;73;734;-56
2021/06/24 00:02:04;;;;;;;;;;;26.20;46.50;;;;;;1623560;73;1153;-55
2021/06/24 00:04:06;;;;;;;;;;;26.30;46.50;;;;;;1619198;73;1947;-56
2021/06/24 00:06:08;;;;;;;;;;;26.30;46.60;;;;;;1612507;73;691;-58
2021/06/24 00:08:10;;;;;;;;;;;26.30;46.60;;;;;;1603070;73;754;-60
2021/06/24 00:10:13;;;;;;;;;;;26.20;46.60;;;;;;1605789;73;804;-60
2021/06/24 00:12:15;;;;;;;;;;;26.20;46.50;;;;;;1603866;73;1118;-57
2021/06/24 00:14:17;;;;;;;;;;;26.20;46.50;;;;;;1604716;73;778;-59
2021/06/24 00:16:18;;;;;;;;;;;26.20;46.30;;;;;;1613325;73;813;-59
2021/06/24 00:18:20;;;;;;;;;;;26.30;46.30;;;;;;1614062;73;723;-60
2021/06/24 00:20:22;;;;;;;;;;;26.20;46.30;;;;;;1604682;73;728;-59
2021/06/24 00:22:24;;;;;;;;;;;26.20;46.30;;;;;;1608484;73;1947;-58
2021/06/24 00:24:26;;;;;;;;;;;26.20;46.30;;;;;;1603933;73;918;-59
2021/06/24 00:26:28;;;;;;;;;;;26.10;46.30;;;;;;1603891;73;831;-59
2021/06/24 00:28:30;;;;;;;;;;;26.30;46.20;;;;;;1599086;73;732;-58
2021/06/24 00:30:34;;;;;;;;;;;26.20;46.20;;;;;;1592791;73;751;-61
2021/06/24 00:32:35;;;;;;;;;;;26.20;46.20;;;;;;1601363;73;1986;-59
2021/06/24 00:34:37;;;;;;;;;;;26.20;46.20;;;;;;1603206;73;658;-60
2021/06/24 00:36:39;;;;;;;;;;;26.20;46.00;;;;;;1611106;73;782;-61
2021/06/24 00:38:41;;;;;;;;;;;26.20;45.90;;;;;;1600466;73;716;-58
2021/06/24 00:40:43;;;;;;;;;;;26.10;46.00;;;;;;1610293;73;669;-58
2021/06/24 00:42:45;;;;;;;;;;;26.20;45.80;;;;;;1614723;71;1932;-58
2021/06/24 00:44:47;;;;;;;;;;;26.10;45.70;;;;;;1603284;73;819;-58
2021/06/24 00:46:52;;;;;;;;;;;26.10;45.70;;;;;;1605304;73;770;-59
2021/06/24 00:48:56;;;;;;;;;;;26.10;45.60;;;;;;1609101;73;1883;-59
2021/06/24 00:50:58;;;;;;;;;;;26.00;45.60;;;;;;1616108;71;1131;-59
2021/06/24 00:53:00;;;;;;;;;;;26.10;45.50;;;;;;1606551;73;784;-59
2021/06/24 00:55:03;;;;;;;;;;;26.00;45.40;;;;;;1608157;73;739;-58
2021/06/24 00:57:05;;;;;;;;;;;26.00;45.50;;;;;;1593162;73;687;-59
2021/06/24 00:59:07;;;;;;;;;;;26.10;45.60;;;;;;1589753;73;700;-58
2021/06/24 01:01:09;;;;;;;;;;;26.10;45.30;;;;;;1607919;73;1133;-58
2021/06/24 01:03:12;;;;;;;;;;;26.10;45.10;;;;;;1592608;73;1946;-60
2021/06/24 01:05:13;;;;;;;;;;;26.10;45.10;;;;;;1600884;73;800;-58
2021/06/24 01:07:15;;;;;;;;;;;26.10;45.10;;;;;;1602484;73;785;-59
2021/06/24 01:09:17;;;;;;;;;;;26.10;45.20;;;;;;1603074;73;782;-59
2021/06/24 01:11:19;;;;;;;;;;;26.10;45.00;;;;;;1601685;73;1165;-58
2021/06/24 01:13:21;;;;;;;;;;;26.10;45.00;;;;;;1605778;73;921;-61
2021/06/24 01:15:23;;;;;;;;;;;26.10;44.80;;;;;;1601608;73;772;-58
2021/06/24 01:17:25;;;;;;;;;;;26.00;44.80;;;;;;1598385;73;842;-58
2021/06/24 01:19:27;;;;;;;;;;;26.00;44.90;;;;;;1604356;73;828;-58
2021/06/24 01:21:28;;;;;;;;;;;26.10;44.80;;;;;;1604371;73;1117;-61
2021/06/24 01:23:38;;;;;;;;;;;26.10;44.70;;;;;;1601205;73;1931;-58
2021/06/24 01:25:40;;;;;;;;;;;26.10;44.60;;;;;;1593523;73;1074;-58
2021/06/24 01:27:42;;;;;;;;;;;26.10;44.60;;;;;;1616148;73;707;-60
2021/06/24 01:29:44;;;;;;;;;;;26.00;44.70;;;;;;1610946;73;676;-58
2021/06/24 01:31:46;;;;;;;;;;;26.10;44.60;;;;;;1604018;73;1189;-56
2021/06/24 01:33:48;;;;;;;;;;;26.10;44.40;;;;;;1602326;73;752;-58
2021/06/24 01:35:50;;;;;;;;;;;26.10;44.40;;;;;;1590971;74;831;-57
2021/06/24 01:37:55;;;;;;;;;;;26.00;44.50;;;;;;1587483;73;702;-60
2021/06/24 01:39:57;;;;;;;;;;;26.00;44.30;;;;;;1601922;73;723;-60
2021/06/24 01:41:59;;;;;;;;;;;26.00;44.30;;;;;;1593586;73;1121;-61
2021/06/24 01:44:01;;;;;;;;;;;26.00;44.40;;;;;;1613564;73;1944;-61
2021/06/24 01:46:03;;;;;;;;;;;26.00;44.40;;;;;;1598154;73;780;-61
2021/06/24 01:48:05;;;;;;;;;;;25.90;43.80;;;;;;1599526;73;750;-56
2021/06/24 01:50:10;;;;;;;;;;;26.00;44.40;;;;;;1594239;73;716;-56
2021/06/24 01:52:12;;;;;;;;;;;26.00;44.30;;;;;;1589875;73;1120;-58
2021/06/24 01:54:15;;;;;;;;;;;25.90;43.60;;;;;;1589446;73;726;-58
2021/06/24 01:56:17;;;;;;;;;;;25.90;43.70;;;;;;1592940;73;1893;-58
2021/06/24 01:58:21;;;;;;;;;;;26.00;44.80;;;;;;1596010;73;806;-60
2021/06/24 02:00:23;;;;;;;;;;;25.90;43.70;;;;;;1588400;73;805;-56
2021/06/24 02:02:25;;;;;;;;;;;25.90;43.60;;;;;;1598768;73;1127;-61
2021/06/24 02:04:28;;;;;;;;;;;25.90;43.50;;;;;;1589904;73;1953;-58
2021/06/24 02:06:30;;;;;;;;;;;25.80;43.70;;;;;;1593376;73;668;-60
2021/06/24 02:08:32;;;;;;;;;;;25.90;43.70;;;;;;1585338;73;776;-59
2021/06/24 02:10:34;;;;;;;;;;;25.90;43.70;;;;;;1594359;73;795;-57
2021/06/24 02:12:36;;;;;;;;;;;25.90;43.80;;;;;;1580615;73;1080;-59
2021/06/24 02:14:38;;;;;;;;;;;25.90;43.80;;;;;;1593104;73;787;-59
2021/06/24 02:16:40;;;;;;;;;;;25.90;43.70;;;;;;1595524;73;734;-58
2021/06/24 02:18:41;;;;;;;;;;;25.90;43.60;;;;;;1587470;73;775;-59
2021/06/24 02:20:43;;;;;;;;;;;26.00;44.30;;;;;;1590254;73;785;-59
2021/06/24 02:22:45;;;;;;;;;;;26.00;44.40;;;;;;1591609;73;1142;-59
2021/06/24 02:24:47;;;;;;;;;;;26.00;44.30;;;;;;1587583;73;1941;-57
2021/06/24 02:26:49;;;;;;;;;;;26.00;44.10;;;;;;1594526;73;791;-58
2021/06/24 02:28:51;;;;;;;;;;;26.00;44.20;;;;;;1603132;73;734;-60
2021/06/24 02:30:53;;;;;;;;;;;26.00;44.00;;;;;;1587115;73;1158;-59
2021/06/24 02:32:55;;;;;;;;;;;26.00;43.90;;;;;;1594885;73;869;-60
2021/06/24 02:34:56;;;;;;;;;;;26.00;43.90;;;;;;1586671;73;803;-59
2021/06/24 02:36:58;;;;;;;;;;;26.00;43.80;;;;;;1595846;73;783;-59
2021/06/24 02:39:00;;;;;;;;;;;26.00;43.60;;;;;;1605431;73;776;-59
2021/06/24 02:41:02;;;;;;;;;;;26.00;43.60;;;;;;1593815;73;1134;-58
2021/06/24 02:43:04;;;;;;;;;;;26.00;43.70;;;;;;1596596;73;750;-58
2021/06/24 02:45:06;;;;;;;;;;;26.00;43.70;;;;;;1604112;73;1969;-59
2021/06/24 02:47:08;;;;;;;;;;;25.90;43.10;;;;;;1607009;73;740;-58
2021/06/24 02:49:11;;;;;;;;;;;25.90;43.20;;;;;;1596752;73;801;-59
2021/06/24 02:51:13;;;;;;;;;;;25.90;43.10;;;;;;1581747;73;1138;-62
2021/06/24 02:53:15;;;;;;;;;;;25.90;43.20;;;;;;1585316;73;849;-59
2021/06/24 02:55:17;;;;;;;;;;;26.00;43.90;;;;;;1593406;73;771;-60
2021/06/24 02:57:19;;;;;;;;;;;26.00;43.80;;;;;;1594355;73;756;-59
2021/06/24 02:59:21;;;;;;;;;;;26.00;43.60;;;;;;1591957;73;804;-60
2021/06/24 03:01:23;;;;;;;;;;;26.00;43.60;;;;;;1587046;73;1130;-56
2021/06/24 03:03:25;;;;;;;;;;;26.00;44.20;;;;;;1589576;73;1941;-60
2021/06/24 03:05:27;;;;;;;;;;;26.00;44.50;;;;;;1599423;73;874;-60
2021/06/24 03:07:30;;;;;;;;;;;26.00;44.50;;;;;;1589696;73;707;-60
2021/06/24 03:09:32;;;;;;;;;;;26.00;44.20;;;;;;1592359;73;819;-55
2021/06/24 03:11:33;;;;;;;;;;;26.10;43.90;;;;;;1593107;73;1122;-59
2021/06/24 03:13:35;;;;;;;;;;;26.00;44.00;;;;;;1594090;73;688;-60
2021/06/24 03:15:38;;;;;;;;;;;26.10;44.10;;;;;;1593217;73;767;-60
2021/06/24 03:17:40;;;;;;;;;;;26.00;44.20;;;;;;1589760;73;747;-58
2021/06/24 03:19:41;;;;;;;;;;;26.10;44.10;;;;;;1596322;73;782;-61
2021/06/24 03:21:43;;;;;;;;;;;26.00;44.10;;;;;;1593512;73;1138;-60
2021/06/24 03:23:45;;;;;;;;;;;26.10;44.00;;;;;;1594094;73;1932;-61
2021/06/24 03:25:47;;;;;;;;;;;26.00;43.80;;;;;;1594188;73;818;-60
2021/06/24 03:27:50;;;;;;;;;;;26.00;43.90;;;;;;1594405;73;717;-59
2021/06/24 03:29:52;;;;;;;;;;;26.10;43.70;;;;;;1593640;73;668;-61
2021/06/24 03:31:54;;;;;;;;;;;26.10;43.70;;;;;;1593568;73;1169;-59
2021/06/24 03:33:56;;;;;;;;;;;26.00;43.90;;;;;;1591465;73;778;-58
2021/06/24 03:35:58;;;;;;;;;;;26.10;43.70;;;;;;1607399;73;814;-61
2021/06/24 03:38:00;;;;;;;;;;;26.00;43.90;;;;;;1589637;73;783;-61
2021/06/24 03:40:03;;;;;;;;;;;26.10;44.00;;;;;;1588330;73;681;-60
2021/06/24 03:42:05;;;;;;;;;;;26.20;43.90;;;;;;1593111;73;1146;-60
2021/06/24 03:44:07;;;;;;;;;;;26.10;44.00;;;;;;1594123;73;1945;-60
2021/06/24 03:46:09;;;;;;;;;;;26.10;44.00;;;;;;1594446;73;639;-59
2021/06/24 03:48:11;;;;;;;;;;;26.10;44.10;;;;;;1591684;73;679;-60
2021/06/24 03:50:13;;;;;;;;;;;26.10;44.20;;;;;;1597843;73;712;-58
2021/06/24 03:52:15;;;;;;;;;;;26.20;43.90;;;;;;1593911;73;1146;-60
2021/06/24 03:54:17;;;;;;;;;;;26.10;43.90;;;;;;1593161;73;784;-60
2021/06/24 03:56:18;;;;;;;;;;;26.10;43.70;;;;;;1593783;73;768;-57
2021/06/24 03:58:20;;;;;;;;;;;26.00;44.30;;;;;;1590725;73;788;-60
2021/06/24 04:00:22;;;;;;;;;;;26.10;44.40;;;;;;1593267;73;762;-60
2021/06/24 04:02:24;;;;;;;;;;;26.20;44.40;;;;;;1595129;73;1118;-59
2021/06/24 04:04:26;;;;;;;;;;;26.20;44.60;;;;;;1593970;73;1957;-60
2021/06/24 04:06:28;;;;;;;;;;;26.20;44.80;;;;;;1594370;73;720;-61
2021/06/24 04:08:30;;;;;;;;;;;26.20;44.70;;;;;;1589702;73;725;-60
2021/06/24 04:10:32;;;;;;;;;;;26.20;44.90;;;;;;1593400;73;792;-59
2021/06/24 04:12:34;;;;;;;;;;;26.20;44.10;;;;;;1593220;73;1110;-60
2021/06/24 04:14:36;;;;;;;;;;;26.10;43.80;;;;;;1595717;73;778;-59
2021/06/24 04:16:38;;;;;;;;;;;26.10;43.80;;;;;;1593801;73;817;-57
2021/06/24 04:18:40;;;;;;;;;;;26.10;43.80;;;;;;1594434;73;828;-57
2021/06/24 04:20:42;;;;;;;;;;;26.10;43.60;;;;;;1601900;73;806;-59
2021/06/24 04:22:43;;;;;;;;;;;26.10;43.60;;;;;;1592034;73;1102;-60
2021/06/24 04:24:45;;;;;;;;;;;26.20;43.70;;;;;;1597332;73;1953;-60
2021/06/24 04:26:47;;;;;;;;;;;26.10;43.70;;;;;;1593955;73;725;-59
2021/06/24 04:28:49;;;;;;;;;;;26.10;44.00;;;;;;1592263;73;762;-60
2021/06/24 04:30:52;;;;;;;;;;;26.20;43.80;;;;;;1589601;73;1174;-59
2021/06/24 04:32:54;;;;;;;;;;;26.10;43.80;;;;;;1584213;73;605;-59
2021/06/24 04:34:56;;;;;;;;;;;26.10;43.80;;;;;;1588508;73;731;-60
2021/06/24 04:36:58;;;;;;;;;;;26.10;44.30;;;;;;1588568;73;722;-59
2021/06/24 04:39:00;;;;;;;;;;;26.10;43.90;;;;;;1602395;73;715;-60
2021/06/24 04:41:02;;;;;;;;;;;26.20;44.00;;;;;;1593829;73;1118;-57
2021/06/24 04:43:03;;;;;;;;;;;26.10;43.90;;;;;;1587844;73;636;-58
2021/06/24 04:45:06;;;;;;;;;;;26.10;44.60;;;;;;1591893;73;1940;-57
2021/06/24 04:47:08;;;;;;;;;;;26.10;44.60;;;;;;1593794;73;866;-58
2021/06/24 04:49:10;;;;;;;;;;;26.10;44.40;;;;;;1590240;73;798;-56
2021/06/24 04:51:12;;;;;;;;;;;26.10;44.50;;;;;;1594799;73;1173;-61
2021/06/24 04:53:13;;;;;;;;;;;26.10;44.60;;;;;;1606031;73;722;-60
2021/06/24 04:55:15;;;;;;;;;;;26.10;44.40;;;;;;1589025;73;821;-57
2021/06/24 04:57:17;;;;;;;;;;;26.20;44.60;;;;;;1590369;73;762;-59
2021/06/24 04:59:19;;;;;;;;;;;26.20;45.10;;;;;;1591877;73;776;-59
2021/06/24 05:01:21;;;;;;;;;;;26.20;45.20;;;;;;1604570;73;1138;-58
2021/06/24 05:03:23;;;;;;;;;;;26.20;45.00;;;;;;1592940;73;655;-57
2021/06/24 05:05:25;;;;;;;;;;;26.10;44.90;;;;;;1602347;73;1944;-56
2021/06/24 05:07:27;;;;;;;;;;;26.20;44.90;;;;;;1571824;71;218081;-72
2021/06/24 05:09:31;;;;;;;;;;;26.20;44.80;;;;;;1545727;76;776;-70
2021/06/24 05:11:32;;;;;;;;;;;26.20;45.00;;;;;;1552900;75;1634;-70
2021/06/24 05:13:34;;;;;;;;;;;26.20;45.30;;;;;;1550980;75;664;-69
2021/06/24 05:15:36;;;;;;;;;;;26.10;45.40;;;;;;1551039;75;747;-71
2021/06/24 05:17:41;;;;;;;;;;;26.20;45.50;;;;;;1534926;75;1145;-68
2021/06/24 05:19:43;;;;;;;;;;;26.20;45.60;;;;;;1525104;76;783;-70
2021/06/24 05:21:45;;;;;;;;;;;26.10;45.70;;;;;;1533247;76;762;-71
2021/06/24 05:23:46;;;;;;;;;;;26.10;45.50;;;;;;1523198;76;723;-71
2021/06/24 05:25:48;;;;;;;;;;;26.00;44.20;;;;;;1535358;76;1947;-70
2021/06/24 05:27:50;;;;;;;;;;;26.00;44.00;;;;;;1527153;76;1109;-70
2021/06/24 05:29:52;;;;;;;;;;;26.00;44.00;;;;;;1526478;76;743;-72
2021/06/24 05:31:54;;;;;;;;;;;26.00;44.00;;;;;;1524124;76;728;-69
2021/06/24 05:33:56;;;;;;;;;;;26.10;44.00;;;;;;1536048;76;780;-70
2021/06/24 05:35:58;;;;;;;;;;;26.10;44.00;;;;;;1524816;76;740;-70
2021/06/24 05:38:00;;;;;;;;;;;26.00;44.20;;;;;;1515385;76;1078;-70
2021/06/24 05:40:02;;;;;;;;;;;26.00;44.20;;;;;;1528374;76;730;-70
2021/06/24 05:42:04;;;;;;;;;;;26.10;44.20;;;;;;1526948;76;773;-70
2021/06/24 05:44:06;;;;;;;;;;;26.10;44.20;;;;;;1531476;76;688;-70
2021/06/24 05:46:08;;;;;;;;;;;26.00;44.30;;;;;;1541336;76;1941;-70
2021/06/24 05:48:10;;;;;;;;;;;26.10;44.40;;;;;;1542842;75;1148;-70
2021/06/24 05:50:12;;;;;;;;;;;26.10;44.40;;;;;;1527926;76;644;-70
2021/06/24 05:52:13;;;;;;;;;;;26.00;44.00;;;;;;1534147;76;750;-72
2021/06/24 05:54:15;;;;;;;;;;;26.00;44.10;;;;;;1542400;76;748;-70
2021/06/24 05:56:17;;;;;;;;;;;26.00;44.70;;;;;;1529456;76;1072;-68
2021/06/24 05:58:21;;;;;;;;;;;26.00;44.70;;;;;;1527539;76;733;-67
2021/06/24 06:00:23;;;;;;;;;;;26.00;44.90;;;;;;1520056;76;1826;-70
2021/06/24 06:02:25;;;;;;;;;;;26.20;44.90;;;;;;1540009;76;738;-72
2021/06/24 06:04:27;;;;;;;;;;;26.20;44.70;;;;;;1527587;76;1945;-68
2021/06/24 06:06:29;;;;;;;;;;;26.20;44.70;;;;;;1525815;76;1145;-69
2021/06/24 06:08:31;;;;;;;;;;;26.10;44.60;;;;;;1526158;76;770;-69
2021/06/24 06:10:33;;;;;;;;;;;26.10;44.90;;;;;;1516711;76;730;-75
2021/06/24 06:12:35;;;;;;;;;;;26.10;44.70;;;;;;1531526;76;751;-74
2021/06/24 06:14:37;;;;;;;;;;;26.10;44.50;;;;;;1524865;76;767;-72
2021/06/24 06:16:39;;;;;;;;;;;26.20;44.40;;;;;;1529731;76;1154;-68
2021/06/24 06:18:41;;;;;;;;;;;26.20;44.40;;;;;;1524893;76;749;-69
2021/06/24 06:20:44;;;;;;;;;;;26.30;44.20;;;;;;1532183;76;754;-68
2021/06/24 06:22:46;;;;;;;;;;;26.30;44.10;;;;;;1530530;76;689;-71
2021/06/24 06:24:48;;;;;;;;;;;26.40;43.90;;;;;;1524868;76;1932;-72
2021/06/24 06:26:49;;;;;;;;;;;26.40;43.50;;;;;;1530996;76;1100;-69
2021/06/24 06:28:54;;;;;;;;;;;26.40;43.60;;;;;;1534267;76;653;-69
2021/06/24 06:30:58;;;;;;;;;;;26.40;44.00;;;;;;1530986;76;751;-72
2021/06/24 06:33:01;;;;;;;;;;;26.40;43.60;;;;;;1534339;76;1664;-70
2021/06/24 06:35:03;;;;;;;;;;;26.60;43.30;;;;;;1525963;76;826;-69
2021/06/24 06:37:05;;;;;;;;;;;26.60;43.10;;;;;;1520677;76;1136;-70
2021/06/24 06:39:07;;;;;;;;;;;26.50;43.30;;;;;;1525352;76;787;-70
2021/06/24 06:41:09;;;;;;;;;;;26.40;42.90;;;;;;1517773;76;933;-70
2021/06/24 06:43:12;;;;;;;;;;;26.20;43.50;;;;;;1516805;76;777;-70
2021/06/24 06:45:17;;;;;;;;;;;26.40;43.50;;;;;;1520373;76;1930;-70
2021/06/24 06:47:18;;;;;;;;;;;26.60;43.20;;;;;;1510617;76;1628;-69
2021/06/24 06:49:20;;;;;;;;;;;26.60;43.10;;;;;;1527161;76;761;-71
2021/06/24 06:51:26;;;;;;;;;;;26.50;43.30;;;;;;1519457;76;693;-71
2021/06/24 06:53:25;;;;;;;;;;;26.50;43.40;;;;;;1521570;76;1631;-69
2021/06/24 06:55:30;;;;;;;;;;;26.50;43.20;;;;;;1526079;76;828;-70
2021/06/24 06:57:32;;;;;;;;;;;26.50;42.90;;;;;;1522719;76;1158;-72
2021/06/24 06:59:35;;;;;;;;;;;26.60;43.00;;;;;;1523351;76;753;-71
2021/06/24 07:01:37;;;;;;;;;;;26.60;42.50;;;;;;1520148;76;725;-66
2021/06/24 07:03:39;;;;;;;;;;;26.30;42.60;;;;;;1521016;76;724;-71
2021/06/24 07:05:40;;;;;;;;;;;26.20;43.10;;;;;;1523651;76;1934;-72
2021/06/24 07:07:42;;;;;;;;;;;26.30;43.30;;;;;;1527261;76;1086;-70
2021/06/24 07:09:44;;;;;;;;;;;26.40;43.10;;;;;;1523040;76;748;-70
2021/06/24 07:11:46;;;;;;;;;;;26.50;43.60;;;;;;1516486;76;803;-69
2021/06/24 07:13:48;;;;;;;;;;;26.40;43.30;;;;;;1511879;76;812;-70
2021/06/24 07:15:51;;;;;;;;;;;26.40;43.30;;;;;;1523963;76;883;-70
2021/06/24 07:17:52;;;;;;;;;;;26.50;43.40;;;;;;1523765;76;1134;-69
2021/06/24 07:19:54;;;;;;;;;;;26.60;43.00;;;;;;1522911;76;791;-69
2021/06/24 07:21:56;;;;;;;;;;;26.70;42.70;;;;;;1535778;76;770;-71
2021/06/24 07:23:58;;;;;;;;;;;26.60;42.50;;;;;;1512654;76;777;-70
2021/06/24 07:26:00;;;;;;;;;;;26.70;42.40;;;;;;1530626;76;1929;-70
2021/06/24 07:28:02;;;;;;;;;;;26.70;42.30;;;;;;1535100;76;1118;-70
2021/06/24 07:30:04;;;;;;;;;;;26.70;42.30;;;;;;1531964;76;666;-70
2021/06/24 07:32:07;;;;;;;;;;;26.80;42.30;;;;;;1526310;76;747;-70
2021/06/24 07:34:08;;;;;;;;;;;26.70;42.30;;;;;;1519906;76;743;-68
2021/06/24 07:36:10;;;;;;;;;;;26.60;42.20;;;;;;1526408;76;830;-70
2021/06/24 07:38:12;;;;;;;;;;;26.60;42.40;;;;;;1516999;76;1225;-71
2021/06/24 07:40:14;;;;;;;;;;;26.60;42.50;;;;;;1508854;76;764;-71
2021/06/24 07:42:19;;;;;;;;;;;26.60;42.70;;;;;;1520607;76;778;-70
2021/06/24 07:44:20;;;;;;;;;;;26.60;42.80;;;;;;1518757;76;1513;-69
2021/06/24 07:46:23;;;;;;;;;;;26.70;42.70;;;;;;1521350;76;1916;-70
2021/06/24 07:48:25;;;;;;;;;;;26.70;42.60;;;;;;1516854;76;712;-69
2021/06/24 07:50:27;;;;;;;;;;;26.70;42.60;;;;;;1516371;76;744;-70
2021/06/24 07:52:29;;;;;;;;;;;26.70;42.40;;;;;;1516530;76;761;-69
2021/06/24 07:54:31;;;;;;;;;;;26.80;42.50;;;;;;1523559;76;770;-70
2021/06/24 07:56:33;;;;;;;;;;;26.80;42.30;;;;;;1522365;76;1172;-71
2021/06/24 07:58:35;;;;;;;;;;;26.70;42.50;;;;;;1530496;76;773;-70
2021/06/24 08:00:37;;;;;;;;;;;26.70;42.30;;;;;;1531633;76;814;-69
2021/06/24 08:02:39;;;;;;;;;;;26.80;42.20;;;;;;1530332;76;835;-70
2021/06/24 08:04:41;;;;;;;;;;;26.80;41.80;;;;;;1535161;76;760;-67
2021/06/24 08:06:43;;;;;;;;;;;26.70;41.70;;;;;;1540139;76;1951;-71
2021/06/24 08:08:45;;;;;;;;;;;26.70;42.10;;;;;;1536420;76;797;-71
2021/06/24 08:10:47;;;;;;;;;;;26.70;42.30;;;;;;1543103;76;761;-69
2021/06/24 08:12:49;;;;;;;;;;;26.70;42.20;;;;;;1547176;76;783;-70
2021/06/24 08:14:51;;;;;;;;;;;26.70;42.40;;;;;;1539761;76;879;-72
2021/06/24 08:16:53;;;;;;;;;;;26.50;42.30;;;;;;1534802;75;1163;-70
2021/06/24 08:18:55;;;;;;;;;;;26.60;42.60;;;;;;1534436;76;813;-70
2021/06/24 08:20:57;;;;;;;;;;;26.70;42.40;;;;;;1533485;76;728;-71
2021/06/24 08:22:59;;;;;;;;;;;26.70;42.50;;;;;;1543391;76;837;-70
2021/06/24 08:25:01;;;;;;;;;;;26.70;42.50;;;;;;1540281;76;783;-69
2021/06/24 08:27:03;;;;;;;;;;;26.60;42.40;;;;;;1534107;75;1944;-71
2021/06/24 08:29:05;;;;;;;;;;;26.70;42.60;;;;;;1541528;76;813;-70
2021/06/24 08:31:07;;;;;;;;;;;26.60;42.50;;;;;;1537950;76;1315;-71
2021/06/24 08:33:09;;;;;;;;;;;26.70;42.50;;;;;;1539141;76;761;-70
2021/06/24 08:35:11;;;;;;;;;;;26.70;42.60;;;;;;1529671;76;899;-70
2021/06/24 08:37:13;;;;;;;;;;;26.70;42.20;;;;;;1527085;76;1157;-70
2021/06/24 08:39:15;;;;;;;;;;;26.50;42.80;;;;;;1519028;76;943;-71
2021/06/24 08:41:19;;;;;;;;;;;26.60;42.90;;;;;;1522045;76;799;-71
2021/06/24 08:43:20;;;;;;;;;;;26.60;42.80;;;;;;1528094;76;1840;-71
2021/06/24 08:45:22;;;;;;;;;;;26.50;42.80;;;;;;1529250;76;713;-70
2021/06/24 08:47:24;;;;;;;;;;;26.40;43.00;;;;;;1525979;76;1948;-70
2021/06/24 08:49:26;;;;;;;;;;;26.50;43.00;;;;;;1528562;76;784;-71
2021/06/24 08:51:28;;;;;;;;;;;26.60;42.80;;;;;;1526883;76;765;-71
2021/06/24 08:53:31;;;;;;;;;;;26.70;42.60;;;;;;1527796;76;832;-71
2021/06/24 08:55:39;;;;;;;;;;;26.60;42.30;;;;;;1522826;76;761;-71
2021/06/24 08:57:39;;;;;;;;;;;26.60;42.60;;;;;;1529299;76;1539;-70
2021/06/24 08:59:41;;;;;;;;;;;26.70;42.60;;;;;;1523495;76;749;-70
2021/06/24 09:01:51;;;;;;;;;;;26.70;42.60;;;;;;1530066;76;760;-70
2021/06/24 09:03:53;;;;;;;;;;;26.80;42.60;;;;;;1531032;76;1623;-70
2021/06/24 09:06:02;;;;;;;;;;;26.80;42.60;;;;;;1522252;76;1942;-70
2021/06/24 09:08:04;;;;;;;;;;;26.70;42.80;;;;;;1526736;76;1092;-69
2021/06/24 09:10:05;;;;;;;;;;;26.70;42.80;;;;;;1534646;76;956;-70
2021/06/24 09:12:08;;;;;;;;;;;26.80;42.50;;;;;;1531139;76;768;-70
2021/06/24 09:14:16;;;;;;;;;;;26.80;42.40;;;;;;1527919;76;704;-70
2021/06/24 09:16:20;;;;;;;;;;;26.70;42.20;;;;;;1523423;76;1684;-70
2021/06/24 09:18:22;;;;;;;;;;;26.70;42.10;;;;;;1522064;76;822;-70
2021/06/24 09:20:26;;;;;;;;;;;26.70;42.20;;;;;;1530386;76;755;-69
2021/06/24 09:22:28;;;;;;;;;;;26.70;42.00;;;;;;1539075;76;784;-70
2021/06/24 09:24:30;;;;;;;;;;;26.70;42.20;;;;;;1521414;76;712;-71
2021/06/24 09:26:33;;;;;;;;;;;26.60;42.40;;;;;;1524267;76;1934;-70
2021/06/24 09:28:38;;;;;;;;;;;26.70;42.10;;;;;;1535199;76;769;-70
2021/06/24 09:30:41;;;;;;;;;;;26.70;41.90;;;;;;1528069;76;650;-68
2021/06/24 09:32:45;;;;;;;;;;;26.80;41.90;;;;;;1526890;76;964;-70
2021/06/24 09:34:53;;;;;;;;;;;26.70;41.90;;;;;;1523949;76;703;-69
2021/06/24 09:37:04;;;;;;;;;;;26.70;41.70;;;;;;1526076;76;1145;-70
2021/06/24 09:39:03;;;;;;;;;;;26.70;41.70;;;;;;1527977;76;1054;-70
2021/06/24 09:41:05;;;;;;;;;;;26.60;41.80;;;;;;1526626;76;743;-68
2021/06/24 09:43:07;;;;;;;;;;;26.50;42.10;;;;;;1511578;77;1279;-71
2021/06/24 09:45:09;;;;;;;;;;;26.40;42.50;;;;;;1527560;76;739;-69
2021/06/24 09:47:22;;;;;;;;;;;26.50;42.30;;;;;;1521659;76;1921;-71
2021/06/24 09:49:29;;;;;;;;;;;26.50;42.00;;;;;;1524596;76;684;-71
2021/06/24 09:51:31;;;;;;;;;;;26.50;41.80;;;;;;1530531;76;1661;-71
2021/06/24 09:53:33;;;;;;;;;;;26.50;42.10;;;;;;1522406;76;724;-69
2021/06/24 09:55:35;;;;;;;;;;;26.70;42.20;;;;;;1533613;76;754;-71
2021/06/24 09:57:37;;;;;;;;;;;26.70;42.00;;;;;;1529243;76;1174;-71
2021/06/24 09:59:42;;;;;;;;;;;26.50;41.90;;;;;;1529324;76;776;-70
2021/06/24 10:01:44;;;;;;;;;;;26.60;41.80;;;;;;1535272;76;945;-71
2021/06/24 10:03:47;;;;;;;;;;;26.60;41.70;;;;;;1530023;76;719;-70
2021/06/24 10:05:49;;;;;;;;;;;26.50;41.80;;;;;;1534072;76;698;-71
2021/06/24 10:07:51;;;;;;;;;;;26.60;41.80;;;;;;1537011;76;1943;-71
2021/06/24 10:09:53;;;;;;;;;;;26.60;42.60;;;;;;1523290;76;818;-69
2021/06/24 10:11:55;;;;;;;;;;;26.50;42.10;;;;;;1522550;76;762;-70
2021/06/24 10:13:57;;;;;;;;;;;26.50;42.00;;;;;;1527833;76;716;-71
2021/06/24 10:15:59;;;;;;;;;;;26.50;41.90;;;;;;1526350;76;809;-69
2021/06/24 10:18:01;;;;;;;;;;;26.50;42.30;;;;;;1533007;76;1129;-70
2021/06/24 10:20:03;;;;;;;;;;;26.50;42.30;;;;;;1534665;76;793;-69
2021/06/24 10:22:12;;;;;;;;;;;26.50;42.30;;;;;;1537806;76;681;-70
2021/06/24 10:24:14;;;;;;;;;;;26.60;42.40;;;;;;1523741;76;788;-69
2021/06/24 10:26:16;;;;;;;;;;;26.40;43.10;;;;;;1520883;76;1944;-70
2021/06/24 10:28:18;;;;;;;;;;;26.40;43.50;;;;;;1535171;76;735;-70
2021/06/24 10:30:23;;;;;;;;;;;26.40;43.10;;;;;;1528705;76;791;-70
2021/06/24 10:32:30;;;;;;;;;;;26.40;43.00;;;;;;1523077;76;847;-74
2021/06/24 10:34:33;;;;;;;;;;;26.40;42.90;;;;;;1518985;76;669;-72
2021/06/24 10:36:36;;;;;;;;;;;26.40;42.70;;;;;;1514736;76;2019;-73
2021/06/24 10:38:41;;;;;;;;;;;26.40;42.70;;;;;;1526482;76;701;-72
2021/06/24 10:40:43;;;;;;;;;;;26.30;42.80;;;;;;1522944;76;753;-72
2021/06/24 10:42:47;;;;;;;;;;;26.20;43.20;;;;;;1531474;76;759;-71
2021/06/24 10:44:50;;;;;;;;;;;26.20;43.50;;;;;;1524282;76;2244;-71
2021/06/24 10:47:04;;;;;;;;;;;26.20;43.30;;;;;;1526333;76;1913;-71
2021/06/24 10:49:20;;;;;;;;;;;26.10;43.00;;;;;;1531074;76;830;-71
2021/06/24 10:51:24;;;;;;;;;;;26.20;42.80;;;;;;1533340;76;1753;-72
2021/06/24 10:53:27;;;;;;;;;;;26.10;42.80;;;;;;1538743;76;1476;-72
2021/06/24 10:55:34;;;;;;;;;;;26.00;43.10;;;;;;1535211;76;766;-71
2021/06/24 10:57:36;;;;;;;;;;;26.10;43.20;;;;;;1542047;76;1235;-71
2021/06/24 10:59:38;;;;;;;;;;;26.10;43.20;;;;;;1526031;76;720;-74
2021/06/24 11:01:40;;;;;;;;;;;26.00;43.40;;;;;;1525323;76;775;-71
2021/06/24 11:03:43;;;;;;;;;;;26.00;43.50;;;;;;1539661;76;795;-71
2021/06/24 11:05:49;;;;;;;;;;;26.00;44.00;;;;;;1541974;76;818;-71
2021/06/24 11:07:52;;;;;;;;;;;25.90;43.80;;;;;;1540462;71;2060;-66
2021/06/24 11:10:12;;;;;;;;;;;25.70;43.90;;;;;;1553905;75;754;-67
2021/06/24 11:12:15;;;;;;;;;;;25.70;43.90;;;;;;1549321;75;807;-69
2021/06/24 11:14:18;;;;;;;;;;;25.80;44.10;;;;;;1552452;75;1447;-67
2021/06/24 11:16:22;;;;;;;;;;;25.70;44.20;;;;;;1531673;76;828;-70
2021/06/24 11:18:34;;;;;;;;;;;25.70;44.20;;;;;;1555897;75;1215;-67
2021/06/24 11:20:42;;;;;;;;;;;25.70;44.40;;;;;;1554088;75;714;-68
2021/06/24 11:22:47;;;;;;;;;;;25.70;44.40;;;;;;1550626;76;738;-69
2021/06/24 11:24:51;;;;;;;;;;;25.60;45.30;;;;;;1549860;76;782;-66
2021/06/24 11:26:53;;;;;;;;;;;25.60;45.60;;;;;;1524816;77;1945;-67
2021/06/24 11:29:03;;;;;;;;;;;25.70;45.70;;;;;;1524472;77;709;-67
2021/06/24 11:31:06;;;;;;;;;;;25.70;45.70;;;;;;1555948;75;732;-67
2021/06/24 11:33:08;;;;;;;;;;;25.70;45.50;;;;;;1555900;75;699;-67
2021/06/24 11:35:32;;;;;;;;;;;25.70;45.20;;;;;;1557015;76;783;-67
2021/06/24 11:37:32;;;;;;;;;;;25.80;44.90;;;;;;1550572;75;1668;-66
2021/06/24 11:39:39;;;;;;;;;;;25.70;44.90;;;;;;1554087;75;782;-67
2021/06/24 11:41:41;;;;;;;;;;;25.80;44.90;;;;;;1526480;77;1211;-67
2021/06/24 11:43:59;;;;;;;;;;;25.80;45.20;;;;;;1528346;76;1117;-66
2021/06/24 11:46:01;;;;;;;;;;;25.70;45.20;;;;;;1552827;75;809;-65
2021/06/24 11:48:03;;;;;;;;;;;25.70;45.30;;;;;;1542506;76;1921;-66
2021/06/24 12:01:56;;;;;;;;;;;25.90;44.50;;;;;;1533235;76;1658;-64
2021/06/24 12:03:51;;;;;;;;;;;26.00;44.70;;;;;;1553923;75;1126;-66
2021/06/24 12:05:53;;;;;;;;;;;25.90;44.10;;;;;;1555246;75;839;-68
2021/06/24 12:07:55;;;;;;;;;;;26.00;44.60;;;;;;1551555;75;1950;-68
2021/06/24 12:09:57;;;;;;;;;;;26.00;44.40;;;;;;1545063;75;710;-69
2021/06/24 12:11:59;;;;;;;;;;;26.00;44.40;;;;;;1552308;75;801;-66
2021/06/24 12:14:02;;;;;;;;;;;26.00;44.40;;;;;;1546253;75;726;-69
2021/06/24 12:16:05;;;;;;;;;;;26.00;44.70;;;;;;1551466;75;1742;-67
2021/06/24 12:18:07;;;;;;;;;;;25.90;44.10;;;;;;1556961;75;1205;-63
2021/06/24 12:20:13;;;;;;;;;;;25.90;44.30;;;;;;1549989;75;794;-66
2021/06/24 12:22:15;;;;;;;;;;;25.90;44.40;;;;;;1546409;75;749;-66